sensor_id;sensor_type;location;lat;lon;timestamp;temperature;humidity
53520;DHT22;39397;53.204;5.778;2024-01-10T00:01:35;-2.60;99.90
53520;DHT22;39397;53.204;5.778;2024-01-10T00:04:01;-2.40;99.90
53520;DHT22;39397;53.204;5.778;2024-01-10T00:06:27;-3.70;99.90
53520;DHT22;39397;53.204;5.778;2024-01-10T00:08:52;-2.20;99.90
53520;DHT22;39397;53.204;5.778;2024-01-10T00:11:18;-1.90;99.90
53520;DHT22;39397;53.204;5.778;2024-01-10T00:13:44;-2.20;99.90
53520;DHT22;39397;53.204;5.778;2024-01-10T00:16:13;-3.80;99.90
53520;DHT22;39397;53.204;5.778;2024-01-10T00:18:39;-2.80;99.90
53520;DHT22;39397;53.204;5.778;2024-01-10T00:21:12;-2.10;99.90
53520;DHT22;39397;53.204;5.778;2024-01-10T00:23:38;-3.70;99.90
53520;DHT22;39397;53.204;5.778;2024-01-10T00:26:04;-2.00;99.90
53520;DHT22;39397;53.204;5.778;2024-01-10T00:28:29;-3.90;99.90
53520;DHT22;39397;53.204;5.778;2024-01-10T00:30:55;-3.80;99.90
53520;DHT22;39397;53.204;5.778;2024-01-10T00:33:21;-3.90;99.90
53520;DHT22;39397;53.204;5.778;2024-01-10T00:35:46;-3.90;99.90
53520;DHT22;39397;53.204;5.778;2024-01-10T00:38:13;-3.00;99.90
53520;DHT22;39397;53.204;5.778;2024-01-10T00:40:39;-3.40;99.90
53520;DHT22;39397;53.204;5.778;2024-01-10T00:43:05;-3.70;99.90
53520;DHT22;39397;53.204;5.778;2024-01-10T00:45:30;-1.90;99.90
53520;DHT22;39397;53.204;5.778;2024-01-10T00:47:56;-3.00;99.90
53520;DHT22;39397;53.204;5.778;2024-01-10T00:50:24;-3.20;99.90
53520;DHT22;39397;53.204;5.778;2024-01-10T00:52:50;-1.50;99.90
53520;DHT22;39397;53.204;5.778;2024-01-10T00:55:16;-1.60;99.90
53520;DHT22;39397;53.204;5.778;2024-01-10T00:57:42;-2.80;99.90
53520;DHT22;39397;53.204;5.778;2024-01-10T01:00:11;-3.40;99.90
53520;DHT22;39397;53.204;5.778;2024-01-10T01:02:38;-3.50;99.90
53520;DHT22;39397;53.204;5.778;2024-01-10T01:05:10;-3.90;99.90
53520;DHT22;39397;53.204;5.778;2024-01-10T01:07:36;-2.10;99.90
53520;DHT22;39397;53.204;5.778;2024-01-10T01:10:02;-1.70;99.90
53520;DHT22;39397;53.204;5.778;2024-01-10T01:12:28;-1.40;99.90
53520;DHT22;39397;53.204;5.778;2024-01-10T01:14:54;-2.20;99.90
53520;DHT22;39397;53.204;5.778;2024-01-10T01:17:20;-1.80;99.90
53520;DHT22;39397;53.204;5.778;2024-01-10T01:19:46;-2.10;99.90
53520;DHT22;39397;53.204;5.778;2024-01-10T01:22:12;-3.20;99.90
53520;DHT22;39397;53.204;5.778;2024-01-10T01:24:37;-2.30;99.90
53520;DHT22;39397;53.204;5.778;2024-01-10T01:27:03;-3.10;99.90
53520;DHT22;39397;53.204;5.778;2024-01-10T01:29:29;-3.50;99.90
53520;DHT22;39397;53.204;5.778;2024-01-10T01:31:55;-2.40;99.90
53520;DHT22;39397;53.204;5.778;2024-01-10T01:34:21;-2.30;99.90
53520;DHT22;39397;53.204;5.778;2024-01-10T01:36:47;-3.40;99.90
53520;DHT22;39397;53.204;5.778;2024-01-10T01:39:13;-2.80;99.90
53520;DHT22;39397;53.204;5.778;2024-01-10T01:41:39;-3.60;99.90
53520;DHT22;39397;53.204;5.778;2024-01-10T01:44:05;-1.60;99.90
53520;DHT22;39397;53.204;5.778;2024-01-10T01:46:32;-3.90;99.90
53520;DHT22;39397;53.204;5.778;2024-01-10T01:48:59;-1.50;99.90
53520;DHT22;39397;53.204;5.778;2024-01-10T01:51:26;-3.00;99.90
53520;DHT22;39397;53.204;5.778;2024-01-10T01:53:53;-2.40;99.90
53520;DHT22;39397;53.204;5.778;2024-01-10T01:56:20;-2.00;99.90
53520;DHT22;39397;53.204;5.778;2024-01-10T01:58:46;-4.00;99.90
53520;DHT22;39397;53.204;5.778;2024-01-10T02:01:13;-2.90;99.90
53520;DHT22;39397;53.204;5.778;2024-01-10T02:03:39;-2.20;99.90
53520;DHT22;39397;53.204;5.778;2024-01-10T02:06:05;-3.80;99.90
53520;DHT22;39397;53.204;5.778;2024-01-10T02:08:35;-3.40;99.90
53520;DHT22;39397;53.204;5.778;2024-01-10T02:11:02;-3.80;99.90
53520;DHT22;39397;53.204;5.778;2024-01-10T02:13:29;-2.50;99.90
53520;DHT22;39397;53.204;5.778;2024-01-10T02:15:55;-4.10;99.90
53520;DHT22;39397;53.204;5.778;2024-01-10T02:18:21;-1.70;99.90
53520;DHT22;39397;53.204;5.778;2024-01-10T02:20:47;-1.60;99.90
53520;DHT22;39397;53.204;5.778;2024-01-10T02:23:13;-2.90;99.90
53520;DHT22;39397;53.204;5.778;2024-01-10T02:25:40;-2.40;99.90
53520;DHT22;39397;53.204;5.778;2024-01-10T02:28:06;-2.60;99.90
53520;DHT22;39397;53.204;5.778;2024-01-10T02:30:33;-2.30;99.90
53520;DHT22;39397;53.204;5.778;2024-01-10T02:32:58;-2.50;99.90
53520;DHT22;39397;53.204;5.778;2024-01-10T02:35:24;-3.00;99.90
53520;DHT22;39397;53.204;5.778;2024-01-10T02:37:50;-2.50;99.90
53520;DHT22;39397;53.204;5.778;2024-01-10T02:40:17;-2.40;99.90
53520;DHT22;39397;53.204;5.778;2024-01-10T02:42:43;-2.40;99.90
53520;DHT22;39397;53.204;5.778;2024-01-10T02:45:09;-4.00;99.90
53520;DHT22;39397;53.204;5.778;2024-01-10T02:47:35;-3.40;99.90
53520;DHT22;39397;53.204;5.778;2024-01-10T02:50:03;-2.10;99.90
53520;DHT22;39397;53.204;5.778;2024-01-10T02:52:29;-3.50;99.90
53520;DHT22;39397;53.204;5.778;2024-01-10T02:54:55;-2.40;99.90
53520;DHT22;39397;53.204;5.778;2024-01-10T02:57:20;-2.30;99.90
53520;DHT22;39397;53.204;5.778;2024-01-10T02:59:46;-3.70;99.90
53520;DHT22;39397;53.204;5.778;2024-01-10T03:02:12;-1.80;99.90
53520;DHT22;39397;53.204;5.778;2024-01-10T03:04:38;-3.90;99.90
53520;DHT22;39397;53.204;5.778;2024-01-10T03:07:03;-3.80;99.90
53520;DHT22;39397;53.204;5.778;2024-01-10T03:09:29;-5.30;99.90
53520;DHT22;39397;53.204;5.778;2024-01-10T03:11:55;-2.20;99.90
53520;DHT22;39397;53.204;5.778;2024-01-10T03:14:21;-1.70;99.90
53520;DHT22;39397;53.204;5.778;2024-01-10T03:16:47;-3.80;99.90
53520;DHT22;39397;53.204;5.778;2024-01-10T03:19:13;-3.90;99.90
53520;DHT22;39397;53.204;5.778;2024-01-10T03:21:39;-3.90;99.90
53520;DHT22;39397;53.204;5.778;2024-01-10T03:24:05;-1.80;99.90
53520;DHT22;39397;53.204;5.778;2024-01-10T03:26:33;-3.80;99.90
53520;DHT22;39397;53.204;5.778;2024-01-10T03:28:59;-4.10;99.90
53520;DHT22;39397;53.204;5.778;2024-01-10T03:31:27;-2.10;99.90
53520;DHT22;39397;53.204;5.778;2024-01-10T03:33:53;-3.90;99.90
53520;DHT22;39397;53.204;5.778;2024-01-10T03:36:19;-3.80;99.90
53520;DHT22;39397;53.204;5.778;2024-01-10T03:38:45;-4.00;99.90
53520;DHT22;39397;53.204;5.778;2024-01-10T03:41:15;-3.60;99.90
53520;DHT22;39397;53.204;5.778;2024-01-10T03:43:40;-3.90;99.90
53520;DHT22;39397;53.204;5.778;2024-01-10T03:46:06;-2.60;99.90
53520;DHT22;39397;53.204;5.778;2024-01-10T03:48:32;-2.40;99.90
53520;DHT22;39397;53.204;5.778;2024-01-10T03:50:58;-2.20;99.90
53520;DHT22;39397;53.204;5.778;2024-01-10T03:53:23;-4.00;99.90
53520;DHT22;39397;53.204;5.778;2024-01-10T03:55:49;-2.30;99.90
53520;DHT22;39397;53.204;5.778;2024-01-10T03:58:15;-4.10;99.90
53520;DHT22;39397;53.204;5.778;2024-01-10T04:00:41;-4.00;99.90
53520;DHT22;39397;53.204;5.778;2024-01-10T04:03:06;-4.10;99.90
53520;DHT22;39397;53.204;5.778;2024-01-10T04:05:32;-4.00;99.90
53520;DHT22;39397;53.204;5.778;2024-01-10T04:07:58;-2.40;99.90
53520;DHT22;39397;53.204;5.778;2024-01-10T04:10:24;-2.90;99.90
53520;DHT22;39397;53.204;5.778;2024-01-10T04:12:50;-4.00;99.90
53520;DHT22;39397;53.204;5.778;2024-01-10T04:15:16;-2.10;99.90
53520;DHT22;39397;53.204;5.778;2024-01-10T04:17:43;-3.50;99.90
53520;DHT22;39397;53.204;5.778;2024-01-10T04:20:09;-2.20;99.90
53520;DHT22;39397;53.204;5.778;2024-01-10T04:22:35;-4.10;99.90
53520;DHT22;39397;53.204;5.778;2024-01-10T04:25:06;-2.40;99.90
53520;DHT22;39397;53.204;5.778;2024-01-10T04:27:32;-4.00;99.90
53520;DHT22;39397;53.204;5.778;2024-01-10T04:29:58;-2.90;99.90
53520;DHT22;39397;53.204;5.778;2024-01-10T04:32:23;-2.30;99.90
53520;DHT22;39397;53.204;5.778;2024-01-10T04:37:21;-4.20;99.90
53520;DHT22;39397;53.204;5.778;2024-01-10T04:39:47;-4.00;99.90
53520;DHT22;39397;53.204;5.778;2024-01-10T04:42:13;-3.00;99.90
53520;DHT22;39397;53.204;5.778;2024-01-10T04:44:41;-5.70;99.90
53520;DHT22;39397;53.204;5.778;2024-01-10T04:47:07;-2.70;99.90
53520;DHT22;39397;53.204;5.778;2024-01-10T04:49:33;-4.00;99.90
53520;DHT22;39397;53.204;5.778;2024-01-10T04:51:58;-4.40;99.90
53520;DHT22;39397;53.204;5.778;2024-01-10T04:54:24;-2.90;99.90
53520;DHT22;39397;53.204;5.778;2024-01-10T04:56:50;-2.60;99.90
53520;DHT22;39397;53.204;5.778;2024-01-10T04:59:16;-2.40;99.90
53520;DHT22;39397;53.204;5.778;2024-01-10T05:01:41;-3.00;99.90
53520;DHT22;39397;53.204;5.778;2024-01-10T05:04:07;-2.80;99.90
53520;DHT22;39397;53.204;5.778;2024-01-10T05:06:33;-2.40;99.90
53520;DHT22;39397;53.204;5.778;2024-01-10T05:08:59;-1.70;99.90
53520;DHT22;39397;53.204;5.778;2024-01-10T05:11:25;-1.60;99.90
53520;DHT22;39397;53.204;5.778;2024-01-10T05:13:52;-2.70;99.90
53520;DHT22;39397;53.204;5.778;2024-01-10T05:16:18;-2.90;99.90
53520;DHT22;39397;53.204;5.778;2024-01-10T05:18:43;-4.20;99.90
53520;DHT22;39397;53.204;5.778;2024-01-10T05:21:10;-4.10;99.90
53520;DHT22;39397;53.204;5.778;2024-01-10T05:23:36;-4.20;99.90
53520;DHT22;39397;53.204;5.778;2024-01-10T05:26:04;-3.00;99.90
53520;DHT22;39397;53.204;5.778;2024-01-10T05:28:30;-3.50;99.90
53520;DHT22;39397;53.204;5.778;2024-01-10T05:30:56;-3.10;99.90
53520;DHT22;39397;53.204;5.778;2024-01-10T05:33:21;-4.20;99.90
53520;DHT22;39397;53.204;5.778;2024-01-10T05:35:50;-3.50;99.90
53520;DHT22;39397;53.204;5.778;2024-01-10T05:38:16;-4.50;99.90
53520;DHT22;39397;53.204;5.778;2024-01-10T05:40:42;-4.10;99.90
53520;DHT22;39397;53.204;5.778;2024-01-10T05:43:07;-3.00;99.90
53520;DHT22;39397;53.204;5.778;2024-01-10T05:45:36;-4.40;99.90
53520;DHT22;39397;53.204;5.778;2024-01-10T05:48:02;-4.60;99.90
53520;DHT22;39397;53.204;5.778;2024-01-10T05:50:28;-4.20;99.90
53520;DHT22;39397;53.204;5.778;2024-01-10T05:52:54;-3.60;99.90
53520;DHT22;39397;53.204;5.778;2024-01-10T05:55:19;-2.60;99.90
53520;DHT22;39397;53.204;5.778;2024-01-10T05:57:45;-4.10;99.90
53520;DHT22;39397;53.204;5.778;2024-01-10T06:00:12;-4.30;99.90
53520;DHT22;39397;53.204;5.778;2024-01-10T06:02:39;-4.10;99.90
53520;DHT22;39397;53.204;5.778;2024-01-10T06:05:09;-3.00;99.90
53520;DHT22;39397;53.204;5.778;2024-01-10T06:07:38;-4.10;99.90
53520;DHT22;39397;53.204;5.778;2024-01-10T06:10:05;-2.90;99.90
53520;DHT22;39397;53.204;5.778;2024-01-10T06:12:31;-4.10;99.90
53520;DHT22;39397;53.204;5.778;2024-01-10T06:14:57;-2.80;99.90
53520;DHT22;39397;53.204;5.778;2024-01-10T06:17:23;-4.20;99.90
53520;DHT22;39397;53.204;5.778;2024-01-10T06:19:50;-4.20;99.90
53520;DHT22;39397;53.204;5.778;2024-01-10T06:22:15;-4.10;99.90
53520;DHT22;39397;53.204;5.778;2024-01-10T06:24:42;-4.20;99.90
53520;DHT22;39397;53.204;5.778;2024-01-10T06:27:08;-4.20;99.90
53520;DHT22;39397;53.204;5.778;2024-01-10T06:29:35;-4.20;99.90
53520;DHT22;39397;53.204;5.778;2024-01-10T06:32:05;-5.20;99.90
53520;DHT22;39397;53.204;5.778;2024-01-10T06:34:36;-3.90;99.90
53520;DHT22;39397;53.204;5.778;2024-01-10T06:37:01;-4.30;99.90
53520;DHT22;39397;53.204;5.778;2024-01-10T06:39:27;-3.40;99.90
53520;DHT22;39397;53.204;5.778;2024-01-10T06:41:53;-2.80;99.90
53520;DHT22;39397;53.204;5.778;2024-01-10T06:44:19;-4.50;99.90
53520;DHT22;39397;53.204;5.778;2024-01-10T06:46:45;-4.10;99.90
53520;DHT22;39397;53.204;5.778;2024-01-10T06:49:12;-2.20;99.90
53520;DHT22;39397;53.204;5.778;2024-01-10T06:51:38;-4.10;99.90
53520;DHT22;39397;53.204;5.778;2024-01-10T06:54:04;-5.70;99.90
53520;DHT22;39397;53.204;5.778;2024-01-10T06:56:33;-2.30;99.90
53520;DHT22;39397;53.204;5.778;2024-01-10T06:58:59;-4.00;99.90
53520;DHT22;39397;53.204;5.778;2024-01-10T07:01:26;-2.00;99.90
53520;DHT22;39397;53.204;5.778;2024-01-10T07:03:53;-4.50;99.90
53520;DHT22;39397;53.204;5.778;2024-01-10T07:06:20;-3.20;99.90
53520;DHT22;39397;53.204;5.778;2024-01-10T07:08:48;-2.00;99.90
53520;DHT22;39397;53.204;5.778;2024-01-10T07:11:18;-3.70;99.90
53520;DHT22;39397;53.204;5.778;2024-01-10T07:13:45;-1.90;99.90
53520;DHT22;39397;53.204;5.778;2024-01-10T07:16:11;-2.90;99.90
53520;DHT22;39397;53.204;5.778;2024-01-10T07:18:40;-2.40;99.90
53520;DHT22;39397;53.204;5.778;2024-01-10T07:21:06;-4.40;99.90
53520;DHT22;39397;53.204;5.778;2024-01-10T07:23:32;-3.70;99.90
53520;DHT22;39397;53.204;5.778;2024-01-10T07:25:59;-2.80;99.90
53520;DHT22;39397;53.204;5.778;2024-01-10T07:28:25;-2.80;99.90
53520;DHT22;39397;53.204;5.778;2024-01-10T07:30:51;-4.30;99.90
53520;DHT22;39397;53.204;5.778;2024-01-10T07:33:17;-4.20;99.90
53520;DHT22;39397;53.204;5.778;2024-01-10T07:35:43;-4.20;99.90
53520;DHT22;39397;53.204;5.778;2024-01-10T07:38:09;-4.30;99.90
53520;DHT22;39397;53.204;5.778;2024-01-10T07:40:36;-4.10;99.90
53520;DHT22;39397;53.204;5.778;2024-01-10T07:43:02;-3.00;99.90
53520;DHT22;39397;53.204;5.778;2024-01-10T07:45:28;-3.80;99.90
53520;DHT22;39397;53.204;5.778;2024-01-10T07:47:54;-2.40;99.90
53520;DHT22;39397;53.204;5.778;2024-01-10T07:50:20;-3.20;99.90
53520;DHT22;39397;53.204;5.778;2024-01-10T07:52:46;-3.50;99.90
53520;DHT22;39397;53.204;5.778;2024-01-10T07:55:12;-3.10;99.90
53520;DHT22;39397;53.204;5.778;2024-01-10T07:57:38;-4.20;99.90
53520;DHT22;39397;53.204;5.778;2024-01-10T08:00:07;-4.00;99.90
53520;DHT22;39397;53.204;5.778;2024-01-10T08:02:37;-4.00;99.90
53520;DHT22;39397;53.204;5.778;2024-01-10T08:05:03;-4.10;99.90
53520;DHT22;39397;53.204;5.778;2024-01-10T08:07:36;-3.90;99.90
53520;DHT22;39397;53.204;5.778;2024-01-10T08:10:06;-3.90;99.90
53520;DHT22;39397;53.204;5.778;2024-01-10T08:12:34;-3.90;99.90
53520;DHT22;39397;53.204;5.778;2024-01-10T08:14:59;-3.50;99.90
53520;DHT22;39397;53.204;5.778;2024-01-10T08:17:26;-3.90;99.90
53520;DHT22;39397;53.204;5.778;2024-01-10T08:19:51;-3.80;99.90
53520;DHT22;39397;53.204;5.778;2024-01-10T08:22:20;-3.80;99.90
53520;DHT22;39397;53.204;5.778;2024-01-10T08:24:46;-2.90;99.90
53520;DHT22;39397;53.204;5.778;2024-01-10T08:27:12;-4.10;99.90
53520;DHT22;39397;53.204;5.778;2024-01-10T08:29:38;-3.80;99.90
53520;DHT22;39397;53.204;5.778;2024-01-10T08:32:04;-1.80;99.90
53520;DHT22;39397;53.204;5.778;2024-01-10T08:34:30;-3.70;99.90
53520;DHT22;39397;53.204;5.778;2024-01-10T08:36:56;-3.70;99.90
53520;DHT22;39397;53.204;5.778;2024-01-10T08:39:21;-3.70;99.90
53520;DHT22;39397;53.204;5.778;2024-01-10T08:41:50;-3.50;99.90
53520;DHT22;39397;53.204;5.778;2024-01-10T08:44:15;-3.60;99.90
53520;DHT22;39397;53.204;5.778;2024-01-10T08:46:41;-2.80;99.90
53520;DHT22;39397;53.204;5.778;2024-01-10T08:49:07;-3.50;99.90
53520;DHT22;39397;53.204;5.778;2024-01-10T08:51:33;-3.40;99.90
53520;DHT22;39397;53.204;5.778;2024-01-10T08:53:59;-3.40;99.90
53520;DHT22;39397;53.204;5.778;2024-01-10T08:56:25;-3.10;99.90
53520;DHT22;39397;53.204;5.778;2024-01-10T08:58:51;-3.40;99.90
53520;DHT22;39397;53.204;5.778;2024-01-10T09:01:18;-2.40;99.90
53520;DHT22;39397;53.204;5.778;2024-01-10T09:03:44;-3.40;99.90
53520;DHT22;39397;53.204;5.778;2024-01-10T09:06:10;-3.30;99.90
53520;DHT22;39397;53.204;5.778;2024-01-10T09:08:36;-1.70;99.90
53520;DHT22;39397;53.204;5.778;2024-01-10T09:11:02;-1.40;99.90
53520;DHT22;39397;53.204;5.778;2024-01-10T09:13:28;-3.20;99.90
53520;DHT22;39397;53.204;5.778;2024-01-10T09:15:55;-3.00;99.90
53520;DHT22;39397;53.204;5.778;2024-01-10T09:18:21;-1.90;99.90
53520;DHT22;39397;53.204;5.778;2024-01-10T09:20:47;-3.00;99.90
53520;DHT22;39397;53.204;5.778;2024-01-10T09:23:14;-1.00;99.90
53520;DHT22;39397;53.204;5.778;2024-01-10T09:25:39;-1.10;99.90
53520;DHT22;39397;53.204;5.778;2024-01-10T09:28:05;-2.90;99.90
53520;DHT22;39397;53.204;5.778;2024-01-10T09:30:31;-2.80;99.90
53520;DHT22;39397;53.204;5.778;2024-01-10T09:32:57;-2.80;99.90
53520;DHT22;39397;53.204;5.778;2024-01-10T09:35:24;-2.80;99.90
53520;DHT22;39397;53.204;5.778;2024-01-10T09:37:50;-3.80;99.90
53520;DHT22;39397;53.204;5.778;2024-01-10T09:40:16;-1.90;99.90
53520;DHT22;39397;53.204;5.778;2024-01-10T09:42:44;-1.20;99.90
53520;DHT22;39397;53.204;5.778;2024-01-10T09:45:10;-2.00;99.90
53520;DHT22;39397;53.204;5.778;2024-01-10T09:47:39;-2.00;99.90
53520;DHT22;39397;53.204;5.778;2024-01-10T09:50:06;-2.50;99.90
53520;DHT22;39397;53.204;5.778;2024-01-10T09:52:39;-2.30;99.90
53520;DHT22;39397;53.204;5.778;2024-01-10T09:55:07;-2.50;99.90
53520;DHT22;39397;53.204;5.778;2024-01-10T09:57:34;-2.40;99.90
53520;DHT22;39397;53.204;5.778;2024-01-10T10:00:02;-1.10;99.90
53520;DHT22;39397;53.204;5.778;2024-01-10T10:02:31;-2.40;99.90
53520;DHT22;39397;53.204;5.778;2024-01-10T10:05:14;-0.80;99.90
53520;DHT22;39397;53.204;5.778;2024-01-10T10:07:49;-2.30;99.90
53520;DHT22;39397;53.204;5.778;2024-01-10T10:10:16;-0.70;99.90
53520;DHT22;39397;53.204;5.778;2024-01-10T10:12:46;-2.20;99.90
53520;DHT22;39397;53.204;5.778;2024-01-10T10:17:40;-2.10;99.90
53520;DHT22;39397;53.204;5.778;2024-01-10T10:20:22;-0.10;99.90
53520;DHT22;39397;53.204;5.778;2024-01-10T10:23:02;-1.00;99.90
53520;DHT22;39397;53.204;5.778;2024-01-10T10:25:33;-1.90;99.90
53520;DHT22;39397;53.204;5.778;2024-01-10T10:28:01;-2.00;99.90
53520;DHT22;39397;53.204;5.778;2024-01-10T10:30:31;-0.70;99.90
53520;DHT22;39397;53.204;5.778;2024-01-10T10:32:57;-0.40;99.90
53520;DHT22;39397;53.204;5.778;2024-01-10T10:35:23;0.10;99.90
53520;DHT22;39397;53.204;5.778;2024-01-10T10:37:51;0.20;99.90
53520;DHT22;39397;53.204;5.778;2024-01-10T10:40:17;0.30;99.90
53520;DHT22;39397;53.204;5.778;2024-01-10T10:42:48;-0.60;99.90
53520;DHT22;39397;53.204;5.778;2024-01-10T10:45:19;-1.50;99.90
53520;DHT22;39397;53.204;5.778;2024-01-10T10:47:49;-1.60;99.90
53520;DHT22;39397;53.204;5.778;2024-01-10T10:50:22;-0.40;99.90
53520;DHT22;39397;53.204;5.778;2024-01-10T10:52:49;0.40;99.90
53520;DHT22;39397;53.204;5.778;2024-01-10T10:55:16;0.50;99.90
53520;DHT22;39397;53.204;5.778;2024-01-10T10:57:47;-1.20;99.90
53520;DHT22;39397;53.204;5.778;2024-01-10T11:00:17;-1.30;99.90
53520;DHT22;39397;53.204;5.778;2024-01-10T11:02:43;-1.20;99.90
53520;DHT22;39397;53.204;5.778;2024-01-10T11:05:10;0.40;99.90
53520;DHT22;39397;53.204;5.778;2024-01-10T11:07:40;0.60;99.90
53520;DHT22;39397;53.204;5.778;2024-01-10T11:10:12;-1.10;99.90
53520;DHT22;39397;53.204;5.778;2024-01-10T11:13:03;-1.10;99.90
53520;DHT22;39397;53.204;5.778;2024-01-10T11:24:15;-1.00;99.90
53520;DHT22;39397;53.204;5.778;2024-01-10T11:26:41;-0.50;99.90
53520;DHT22;39397;53.204;5.778;2024-01-10T11:29:07;-0.40;99.90
53520;DHT22;39397;53.204;5.778;2024-01-10T11:31:33;-0.80;99.90
53520;DHT22;39397;53.204;5.778;2024-01-10T11:34:02;-0.20;99.90
53520;DHT22;39397;53.204;5.778;2024-01-10T11:36:29;-0.50;99.90
53520;DHT22;39397;53.204;5.778;2024-01-10T11:38:58;-0.70;99.90
53520;DHT22;39397;53.204;5.778;2024-01-10T11:41:36;0.20;99.90
53520;DHT22;39397;53.204;5.778;2024-01-10T11:46:49;0.00;99.90
53520;DHT22;39397;53.204;5.778;2024-01-10T11:49:17;-0.50;99.90
53520;DHT22;39397;53.204;5.778;2024-01-10T11:51:48;1.20;99.90
53520;DHT22;39397;53.204;5.778;2024-01-10T11:54:42;0.00;99.90
53520;DHT22;39397;53.204;5.778;2024-01-10T11:59:44;-0.60;99.90
53520;DHT22;39397;53.204;5.778;2024-01-10T12:02:11;1.00;99.90
53520;DHT22;39397;53.204;5.778;2024-01-10T12:04:38;-0.10;99.90
53520;DHT22;39397;53.204;5.778;2024-01-10T12:07:05;-0.40;99.90
53520;DHT22;39397;53.204;5.778;2024-01-10T12:09:35;-0.50;99.90
53520;DHT22;39397;53.204;5.778;2024-01-10T12:12:02;-0.50;99.90
53520;DHT22;39397;53.204;5.778;2024-01-10T12:14:28;-0.50;99.90
53520;DHT22;39397;53.204;5.778;2024-01-10T12:16:54;0.80;99.90
53520;DHT22;39397;53.204;5.778;2024-01-10T12:19:20;1.20;99.90
53520;DHT22;39397;53.204;5.778;2024-01-10T12:21:46;-1.80;99.90
53520;DHT22;39397;53.204;5.778;2024-01-10T12:24:13;-0.20;99.90
53520;DHT22;39397;53.204;5.778;2024-01-10T12:26:49;1.30;99.90
53520;DHT22;39397;53.204;5.778;2024-01-10T12:29:19;0.50;99.90
53520;DHT22;39397;53.204;5.778;2024-01-10T12:31:48;1.30;99.90
53520;DHT22;39397;53.204;5.778;2024-01-10T12:34:14;2.10;99.90
53520;DHT22;39397;53.204;5.778;2024-01-10T12:36:41;1.40;99.90
53520;DHT22;39397;53.204;5.778;2024-01-10T12:39:07;1.00;99.90
53520;DHT22;39397;53.204;5.778;2024-01-10T12:41:33;1.50;99.90
53520;DHT22;39397;53.204;5.778;2024-01-10T12:44:01;1.50;99.90
53520;DHT22;39397;53.204;5.778;2024-01-10T12:46:30;-1.00;99.90
53520;DHT22;39397;53.204;5.778;2024-01-10T12:49:15;2.20;99.90
53520;DHT22;39397;53.204;5.778;2024-01-10T12:51:42;-0.40;99.90
53520;DHT22;39397;53.204;5.778;2024-01-10T12:54:09;1.80;99.90
53520;DHT22;39397;53.204;5.778;2024-01-10T12:56:34;0.50;99.90
53520;DHT22;39397;53.204;5.778;2024-01-10T12:59:00;1.40;99.90
53520;DHT22;39397;53.204;5.778;2024-01-10T13:01:26;0.00;99.90
53520;DHT22;39397;53.204;5.778;2024-01-10T13:03:52;1.60;99.90
53520;DHT22;39397;53.204;5.778;2024-01-10T13:06:18;1.80;99.90
53520;DHT22;39397;53.204;5.778;2024-01-10T13:08:48;-1.40;99.90
53520;DHT22;39397;53.204;5.778;2024-01-10T13:11:16;0.50;99.90
53520;DHT22;39397;53.204;5.778;2024-01-10T13:13:42;-1.30;99.90
53520;DHT22;39397;53.204;5.778;2024-01-10T13:16:14;2.00;99.90
53520;DHT22;39397;53.204;5.778;2024-01-10T13:18:42;1.90;99.90
53520;DHT22;39397;53.204;5.778;2024-01-10T13:21:11;2.50;99.90
53520;DHT22;39397;53.204;5.778;2024-01-10T13:23:42;1.70;99.90
53520;DHT22;39397;53.204;5.778;2024-01-10T13:26:08;0.00;99.90
53520;DHT22;39397;53.204;5.778;2024-01-10T13:28:42;1.10;99.90
53520;DHT22;39397;53.204;5.778;2024-01-10T13:31:09;2.10;99.90
53520;DHT22;39397;53.204;5.778;2024-01-10T13:33:35;0.40;99.90
53520;DHT22;39397;53.204;5.778;2024-01-10T13:36:01;1.50;99.90
53520;DHT22;39397;53.204;5.778;2024-01-10T13:38:27;1.70;99.90
53520;DHT22;39397;53.204;5.778;2024-01-10T13:40:52;1.90;99.90
53520;DHT22;39397;53.204;5.778;2024-01-10T13:43:18;-0.20;99.90
53520;DHT22;39397;53.204;5.778;2024-01-10T13:45:44;1.40;99.90
53520;DHT22;39397;53.204;5.778;2024-01-10T13:48:10;1.60;99.90
53520;DHT22;39397;53.204;5.778;2024-01-10T13:50:36;-0.20;99.90
53520;DHT22;39397;53.204;5.778;2024-01-10T13:53:01;1.60;99.90
53520;DHT22;39397;53.204;5.778;2024-01-10T13:55:30;-0.10;99.90
53520;DHT22;39397;53.204;5.778;2024-01-10T13:57:56;1.50;99.90
53520;DHT22;39397;53.204;5.778;2024-01-10T14:00:22;-1.00;99.90
53520;DHT22;39397;53.204;5.778;2024-01-10T14:02:48;-0.40;99.90
53520;DHT22;39397;53.204;5.778;2024-01-10T14:05:14;1.70;99.90
53520;DHT22;39397;53.204;5.778;2024-01-10T14:07:40;1.20;99.90
53520;DHT22;39397;53.204;5.778;2024-01-10T14:10:10;1.50;99.90
53520;DHT22;39397;53.204;5.778;2024-01-10T14:12:37;-0.10;99.90
53520;DHT22;39397;53.204;5.778;2024-01-10T14:15:03;1.50;99.90
53520;DHT22;39397;53.204;5.778;2024-01-10T14:17:29;-0.20;99.90
53520;DHT22;39397;53.204;5.778;2024-01-10T14:19:55;1.30;99.90
53520;DHT22;39397;53.204;5.778;2024-01-10T14:22:21;1.10;99.90
53520;DHT22;39397;53.204;5.778;2024-01-10T14:24:49;1.30;99.90
53520;DHT22;39397;53.204;5.778;2024-01-10T14:27:16;-0.10;99.90
53520;DHT22;39397;53.204;5.778;2024-01-10T14:29:42;1.00;99.90
53520;DHT22;39397;53.204;5.778;2024-01-10T14:32:07;-0.30;99.90
53520;DHT22;39397;53.204;5.778;2024-01-10T14:34:33;-0.30;99.90
53520;DHT22;39397;53.204;5.778;2024-01-10T14:36:59;-0.40;99.90
53520;DHT22;39397;53.204;5.778;2024-01-10T14:39:25;1.30;99.90
53520;DHT22;39397;53.204;5.778;2024-01-10T14:41:50;1.20;99.90
53520;DHT22;39397;53.204;5.778;2024-01-10T14:44:16;1.60;99.90
53520;DHT22;39397;53.204;5.778;2024-01-10T14:46:42;-0.60;99.90
53520;DHT22;39397;53.204;5.778;2024-01-10T14:49:09;1.40;99.90
53520;DHT22;39397;53.204;5.778;2024-01-10T14:51:35;1.40;99.90
53520;DHT22;39397;53.204;5.778;2024-01-10T14:54:01;-0.40;99.90
53520;DHT22;39397;53.204;5.778;2024-01-10T14:56:27;0.30;99.90
53520;DHT22;39397;53.204;5.778;2024-01-10T14:58:52;-0.40;99.90
53520;DHT22;39397;53.204;5.778;2024-01-10T15:01:20;1.10;99.90
53520;DHT22;39397;53.204;5.778;2024-01-10T15:03:46;-0.60;99.90
53520;DHT22;39397;53.204;5.778;2024-01-10T15:06:14;0.90;99.90
53520;DHT22;39397;53.204;5.778;2024-01-10T15:08:41;1.20;99.90
53520;DHT22;39397;53.204;5.778;2024-01-10T15:11:07;0.00;99.90
53520;DHT22;39397;53.204;5.778;2024-01-10T15:13:37;-0.80;99.90
53520;DHT22;39397;53.204;5.778;2024-01-10T15:16:03;0.90;99.90
53520;DHT22;39397;53.204;5.778;2024-01-10T15:18:29;-0.90;99.90
53520;DHT22;39397;53.204;5.778;2024-01-10T15:20:54;0.40;99.90
53520;DHT22;39397;53.204;5.778;2024-01-10T15:23:20;0.90;99.90
53520;DHT22;39397;53.204;5.778;2024-01-10T15:25:46;-0.90;99.90
53520;DHT22;39397;53.204;5.778;2024-01-10T15:28:13;-1.10;99.90
53520;DHT22;39397;53.204;5.778;2024-01-10T15:30:38;0.80;99.90
53520;DHT22;39397;53.204;5.778;2024-01-10T15:33:07;-1.10;99.90
53520;DHT22;39397;53.204;5.778;2024-01-10T15:35:35;-2.70;99.90
53520;DHT22;39397;53.204;5.778;2024-01-10T15:38:01;-0.60;99.90
53520;DHT22;39397;53.204;5.778;2024-01-10T15:40:27;-0.70;99.90
53520;DHT22;39397;53.204;5.778;2024-01-10T15:42:55;-1.20;99.90
53520;DHT22;39397;53.204;5.778;2024-01-10T15:45:23;0.60;99.90
53520;DHT22;39397;53.204;5.778;2024-01-10T15:47:49;-1.50;99.90
53520;DHT22;39397;53.204;5.778;2024-01-10T15:50:15;0.70;99.90